createdAt,value
2018-07-25T00:02:01.835Z,31.07
2018-07-25T00:04:30.570Z,24.53
2018-07-25T00:06:58.889Z,31.37
2018-07-25T00:09:27.522Z,23.73
2018-07-25T00:11:56.181Z,28.27
2018-07-25T00:14:24.824Z,29.00
2018-07-25T00:16:53.481Z,27.53
2018-07-25T00:19:22.061Z,29.27
2018-07-25T00:21:50.658Z,26.70
2018-07-25T00:24:19.369Z,30.53
2018-07-25T00:26:48.069Z,29.90
2018-07-25T00:29:16.728Z,31.07
2018-07-25T00:31:45.383Z,31.33
2018-07-25T00:34:14.078Z,30.83
2018-07-25T00:36:42.680Z,28.40
2018-07-25T00:39:11.277Z,24.77
2018-07-25T00:41:39.921Z,23.77
2018-07-25T00:44:08.602Z,24.80
2018-07-25T00:46:37.216Z,26.77
2018-07-25T00:49:05.857Z,25.83
2018-07-25T00:51:34.558Z,24.60
2018-07-25T00:54:03.234Z,25.43
2018-07-25T00:56:31.910Z,27.13
2018-07-25T00:59:00.621Z,27.27
2018-07-25T01:01:29.029Z,27.00
2018-07-25T01:03:57.685Z,28.60
2018-07-25T01:06:26.298Z,29.47
2018-07-25T01:08:54.898Z,26.23
2018-07-25T01:11:23.513Z,27.50
2018-07-25T01:13:52.092Z,27.07
2018-07-25T01:16:20.731Z,27.47
2018-07-25T01:18:49.408Z,28.40
2018-07-25T01:21:18.082Z,28.23
2018-07-25T01:23:46.733Z,28.90
2018-07-25T01:26:15.390Z,29.93
2018-07-25T01:28:44.006Z,29.77
2018-07-25T01:31:12.628Z,30.33
2018-07-25T01:33:42.248Z,28.63
2018-07-25T01:36:10.865Z,27.80
2018-07-25T01:38:39.513Z,28.97
2018-07-25T01:41:08.142Z,27.23
2018-07-25T01:43:36.784Z,29.97
2018-07-25T01:46:05.647Z,27.97
2018-07-25T01:48:34.406Z,29.57
2018-07-25T01:51:03.118Z,28.30
2018-07-25T01:53:31.873Z,30.50
2018-07-25T01:56:00.573Z,27.30
2018-07-25T01:58:29.201Z,26.43
2018-07-25T02:00:57.860Z,29.10
2018-07-25T02:03:26.517Z,27.67
2018-07-25T02:05:55.134Z,27.47
2018-07-25T02:08:23.745Z,31.37
2018-07-25T02:10:52.385Z,30.87
2018-07-25T02:13:20.620Z,30.73
2018-07-25T02:15:49.274Z,32.70
2018-07-25T02:18:17.953Z,31.50
2018-07-25T02:20:46.559Z,35.40
2018-07-25T02:23:15.186Z,31.57
2018-07-25T02:25:43.774Z,32.77
2018-07-25T02:28:12.364Z,32.40
2018-07-25T02:30:40.998Z,33.47
2018-07-25T02:33:09.680Z,35.23
2018-07-25T02:35:38.304Z,37.30
2018-07-25T02:38:06.901Z,38.20
2018-07-25T02:40:35.528Z,38.27
2018-07-25T02:43:04.224Z,37.60
2018-07-25T02:45:38.294Z,35.70
2018-07-25T02:48:06.950Z,37.97
2018-07-25T02:50:35.557Z,35.57
2018-07-25T02:53:04.289Z,38.57
2018-07-25T02:55:33.047Z,37.83
2018-07-25T02:58:01.421Z,37.33
2018-07-25T03:00:30.161Z,39.87
2018-07-25T03:02:58.878Z,39.10
2018-07-25T03:05:27.477Z,40.17
2018-07-25T03:07:56.105Z,37.10
2018-07-25T03:10:24.725Z,40.50
2018-07-25T03:12:53.703Z,43.23
2018-07-25T03:15:22.333Z,44.27
2018-07-25T03:17:50.954Z,41.80
2018-07-25T03:20:19.668Z,38.17
2018-07-25T03:22:48.302Z,40.50
2018-07-25T03:25:17.009Z,39.87
2018-07-25T03:27:45.596Z,40.33
2018-07-25T03:30:14.255Z,42.53
2018-07-25T03:32:42.841Z,42.37
2018-07-25T03:35:11.450Z,44.27
2018-07-25T03:37:40.029Z,37.90
2018-07-25T03:40:08.748Z,43.50
2018-07-25T03:42:37.373Z,42.57
2018-07-25T03:45:06.036Z,41.13
2018-07-25T03:47:34.770Z,38.00
2018-07-25T03:50:03.521Z,44.83
2018-07-25T03:52:32.257Z,47.57
2018-07-25T03:55:00.956Z,44.50
2018-07-25T03:57:29.722Z,44.90
2018-07-25T03:59:58.321Z,47.93
2018-07-25T04:02:27.041Z,38.40
2018-07-25T04:04:55.625Z,40.10
2018-07-25T04:07:24.230Z,44.47
2018-07-25T04:09:52.859Z,42.10
2018-07-25T04:12:21.473Z,42.50
2018-07-25T04:14:50.205Z,43.97
2018-07-25T04:17:18.845Z,45.30
2018-07-25T04:19:47.518Z,44.27
2018-07-25T04:22:16.200Z,42.67
2018-07-25T04:24:45.005Z,39.90
2018-07-25T04:27:13.559Z,43.27
2018-07-25T04:29:42.191Z,41.37
2018-07-25T04:32:11.001Z,46.20
2018-07-25T04:34:39.663Z,40.57
2018-07-25T04:37:08.193Z,43.70
2018-07-25T04:39:36.782Z,45.50
2018-07-25T04:42:05.475Z,43.80
2018-07-25T04:44:34.111Z,39.67
2018-07-25T04:47:02.905Z,45.87
2018-07-25T04:49:31.657Z,45.97
2018-07-25T04:52:00.385Z,42.87
2018-07-25T04:54:29.017Z,41.77
2018-07-25T04:56:57.621Z,45.40
2018-07-25T04:59:26.244Z,45.13
2018-07-25T05:01:54.854Z,40.87
2018-07-25T05:04:23.483Z,43.03
2018-07-25T05:06:52.123Z,44.50
2018-07-25T05:09:20.811Z,46.53
2018-07-25T05:11:49.542Z,46.53
2018-07-25T05:14:18.245Z,44.57
2018-07-25T05:16:46.859Z,44.93
2018-07-25T05:19:15.474Z,41.80
2018-07-25T05:21:44.109Z,43.90
2018-07-25T05:24:12.725Z,45.47
2018-07-25T05:26:41.435Z,34.47
2018-07-25T05:29:10.052Z,36.57
2018-07-25T05:31:38.670Z,36.93
2018-07-25T05:34:07.248Z,33.37
2018-07-25T05:36:36.058Z,36.00
2018-07-25T05:39:08.349Z,37.90
2018-07-25T05:41:37.045Z,39.57
2018-07-25T05:44:05.790Z,37.67
2018-07-25T05:46:34.065Z,34.57
2018-07-25T05:49:03.077Z,32.43
2018-07-25T05:51:31.758Z,35.80
2018-07-25T05:54:00.447Z,34.40
2018-07-25T05:56:29.100Z,36.03
2018-07-25T05:58:57.807Z,33.57
2018-07-25T06:01:26.601Z,33.83
2018-07-25T06:03:55.194Z,34.60
2018-07-25T06:06:23.837Z,30.93
2018-07-25T06:08:52.447Z,32.10
2018-07-25T06:11:21.093Z,32.10
2018-07-25T06:13:49.698Z,30.07
2018-07-25T06:16:18.392Z,29.87
2018-07-25T06:18:47.029Z,33.23
2018-07-25T06:21:15.745Z,28.90
2018-07-25T06:23:44.397Z,31.87
2018-07-25T06:26:13.050Z,35.03
2018-07-25T06:28:41.613Z,31.70
2018-07-25T06:31:10.193Z,35.90
2018-07-25T06:33:38.786Z,35.03
2018-07-25T06:36:07.671Z,34.77
2018-07-25T06:38:36.293Z,33.10
2018-07-25T06:41:04.944Z,30.67
2018-07-25T06:43:33.634Z,31.80
2018-07-25T06:46:01.970Z,28.50
2018-07-25T06:48:30.777Z,28.47
2018-07-25T06:50:59.409Z,33.53
2018-07-25T06:53:28.031Z,31.70
2018-07-25T06:55:56.641Z,28.13
2018-07-25T06:58:25.246Z,30.73
2018-07-25T07:00:53.854Z,30.03
2018-07-25T07:03:22.456Z,30.73
2018-07-25T07:05:51.081Z,30.43
2018-07-25T07:08:19.665Z,29.10
2018-07-25T07:10:48.308Z,29.13
2018-07-25T07:13:16.897Z,30.90
2018-07-25T07:15:45.523Z,30.43
2018-07-25T07:18:14.163Z,33.27
2018-07-25T07:20:42.764Z,30.67
2018-07-25T07:23:11.385Z,30.07
2018-07-25T07:25:39.985Z,32.07
2018-07-25T07:28:08.666Z,30.10
2018-07-25T07:30:37.241Z,32.10
2018-07-25T07:33:06.132Z,35.97
2018-07-25T07:35:34.805Z,31.40
2018-07-25T07:38:03.458Z,32.00
2018-07-25T07:40:32.149Z,35.20
2018-07-25T07:43:00.866Z,35.53
2018-07-25T07:45:29.514Z,33.70
2018-07-25T07:47:58.131Z,35.77
2018-07-25T07:50:26.744Z,37.50
2018-07-25T07:52:55.328Z,36.43
2018-07-25T07:55:23.943Z,38.93
2018-07-25T07:57:52.637Z,37.83
2018-07-25T08:00:21.226Z,37.70
2018-07-25T08:02:49.829Z,36.97
2018-07-25T08:05:18.554Z,35.63
2018-07-25T08:07:47.200Z,37.00
2018-07-25T08:10:15.782Z,35.87
2018-07-25T08:12:44.470Z,36.60
2018-07-25T08:15:13.041Z,38.33
2018-07-25T08:17:41.644Z,37.33
2018-07-25T08:20:10.245Z,37.87
2018-07-25T08:22:38.829Z,36.57
2018-07-25T08:25:07.515Z,33.40
2018-07-25T08:27:36.089Z,32.63
2018-07-25T08:30:05.679Z,32.80
2018-07-25T08:32:34.297Z,29.47
2018-07-25T08:35:02.996Z,30.63
2018-07-25T08:37:31.637Z,37.03
2018-07-25T08:40:00.281Z,31.77
2018-07-25T08:42:28.920Z,26.77
2018-07-25T08:44:57.581Z,27.02
2018-07-25T08:47:26.201Z,39.05
2018-07-25T08:49:54.838Z,40.15
2018-07-25T08:52:23.435Z,27.65
2018-07-25T08:54:52.025Z,28.25
2018-07-25T08:57:22.092Z,28.80
2018-07-25T08:59:50.737Z,27.40
2018-07-25T09:02:19.333Z,29.60
2018-07-25T09:04:47.933Z,27.15
2018-07-25T09:07:16.559Z,27.62
2018-07-25T09:09:45.283Z,27.00
2018-07-25T09:12:13.757Z,27.07
2018-07-25T09:14:42.679Z,28.50
2018-07-25T09:17:11.428Z,27.58
2018-07-25T09:19:40.019Z,27.75
2018-07-25T09:22:08.635Z,26.90
2018-07-25T09:24:37.225Z,29.63
2018-07-25T09:27:05.796Z,30.57
2018-07-25T09:29:34.450Z,28.12
2018-07-25T09:32:03.072Z,27.22
2018-07-25T09:34:31.715Z,27.37
2018-07-25T09:37:00.349Z,24.75
2018-07-25T09:39:29.086Z,22.65
2018-07-25T09:41:57.697Z,22.65
2018-07-25T09:44:26.326Z,22.67
2018-07-25T09:46:55.001Z,21.00
2018-07-25T09:49:23.569Z,21.30
2018-07-25T09:51:52.416Z,21.48
2018-07-25T09:54:21.128Z,20.02
2018-07-25T09:56:51.706Z,21.50
2018-07-25T09:59:20.476Z,22.70
2018-07-25T10:01:49.102Z,22.25
2018-07-25T10:04:17.744Z,21.50
2018-07-25T10:06:46.404Z,21.82
2018-07-25T10:09:14.999Z,21.52
2018-07-25T10:11:43.630Z,22.45
2018-07-25T10:14:12.216Z,22.20
2018-07-25T10:16:40.871Z,22.17
2018-07-25T10:19:09.493Z,21.85
2018-07-25T10:21:38.145Z,22.67
2018-07-25T10:24:06.759Z,20.80
2018-07-25T10:26:35.498Z,22.62
2018-07-25T10:29:04.213Z,22.13
2018-07-25T10:31:32.894Z,22.35
2018-07-25T10:34:01.606Z,20.60
2018-07-25T10:36:30.223Z,19.87
2018-07-25T10:38:58.884Z,20.62
2018-07-25T10:41:27.549Z,22.40
2018-07-25T10:43:56.157Z,22.65
2018-07-25T10:46:24.804Z,23.38
2018-07-25T10:48:53.435Z,23.07
2018-07-25T10:51:21.992Z,20.68
2018-07-25T10:53:50.613Z,20.40
2018-07-25T10:56:19.405Z,21.17
2018-07-25T10:58:48.182Z,18.37
2018-07-25T11:01:16.887Z,18.80
2018-07-25T11:03:45.474Z,17.45
2018-07-25T11:06:14.093Z,17.80
2018-07-25T11:08:42.669Z,16.90
2018-07-25T11:11:10.921Z,17.55
2018-07-25T11:13:39.526Z,17.00
2018-07-25T11:16:08.206Z,16.73
2018-07-25T11:18:36.804Z,16.85
2018-07-25T11:21:05.442Z,16.87
2018-07-25T11:23:33.725Z,18.32
2018-07-25T11:26:02.398Z,19.37
2018-07-25T11:28:31.077Z,17.40
2018-07-25T11:31:00.098Z,18.50
2018-07-25T11:33:28.795Z,17.87
2018-07-25T11:35:57.362Z,18.15
2018-07-25T11:38:25.960Z,18.40
2018-07-25T11:40:54.977Z,19.23
2018-07-25T11:43:23.564Z,18.67
2018-07-25T11:45:52.154Z,18.35
2018-07-25T11:48:20.797Z,18.42
2018-07-25T11:50:49.389Z,18.77
2018-07-25T11:53:18.054Z,17.35
2018-07-25T11:55:46.749Z,18.70
2018-07-25T11:58:16.626Z,17.85
2018-07-25T12:00:45.250Z,18.57
2018-07-25T12:03:13.849Z,19.73
2018-07-25T12:05:42.452Z,19.50
2018-07-25T12:08:11.033Z,19.02
2018-07-25T12:10:39.689Z,19.15
2018-07-25T12:13:08.289Z,19.02
2018-07-25T12:15:36.928Z,20.17
2018-07-25T12:18:05.773Z,19.52
2018-07-25T12:20:34.450Z,21.12
2018-07-25T12:23:03.102Z,23.05
2018-07-25T12:25:31.758Z,20.97
2018-07-25T12:28:00.401Z,21.25
2018-07-25T12:30:29.057Z,22.98
2018-07-25T12:32:57.717Z,22.00
2018-07-25T12:35:26.313Z,20.92
2018-07-25T12:37:54.949Z,20.43
2018-07-25T12:40:23.613Z,19.17
2018-07-25T12:42:52.323Z,19.60
2018-07-25T12:45:20.925Z,19.27
2018-07-25T12:47:49.583Z,20.55
2018-07-25T12:50:18.220Z,20.70
2018-07-25T12:52:46.865Z,19.98
2018-07-25T12:55:15.487Z,18.35
2018-07-25T12:57:44.118Z,18.92
2018-07-25T13:00:12.796Z,18.35
2018-07-25T13:02:41.422Z,17.40
2018-07-25T13:05:10.717Z,15.72
2018-07-25T13:07:39.308Z,16.93
2018-07-25T13:10:08.045Z,19.10
2018-07-25T13:12:36.693Z,19.62
2018-07-25T13:15:05.512Z,18.85
2018-07-25T13:17:34.193Z,19.60
2018-07-25T13:20:02.902Z,17.73
2018-07-25T13:22:31.594Z,17.07
2018-07-25T13:25:00.284Z,16.35
2018-07-25T13:27:28.927Z,16.85
2018-07-25T13:29:57.536Z,16.48
2018-07-25T13:32:26.165Z,18.27
2018-07-25T13:34:54.768Z,18.42
2018-07-25T13:37:23.416Z,18.35
2018-07-25T13:39:52.049Z,19.30
2018-07-25T13:42:20.721Z,18.12
2018-07-25T13:44:49.353Z,17.50
2018-07-25T13:47:18.097Z,19.32
2018-07-25T13:49:46.777Z,19.52
2018-07-25T13:52:15.486Z,18.37
2018-07-25T13:54:44.113Z,17.75
2018-07-25T13:57:12.729Z,18.00
2018-07-25T13:59:41.370Z,18.70
2018-07-25T14:02:10.014Z,17.82
2018-07-25T14:04:38.698Z,20.77
2018-07-25T14:07:07.317Z,22.62
2018-07-25T14:09:35.949Z,20.57
2018-07-25T14:12:04.646Z,18.70
2018-07-25T14:14:33.301Z,18.45
2018-07-25T14:17:01.988Z,20.48
2018-07-25T14:19:30.690Z,19.65
2018-07-25T14:21:59.373Z,17.85
2018-07-25T14:24:28.124Z,16.60
2018-07-25T14:26:56.797Z,17.45
2018-07-25T14:29:25.448Z,16.70
2018-07-25T14:31:54.029Z,17.00
2018-07-25T14:34:22.713Z,17.25
2018-07-25T14:36:51.249Z,17.70
2018-07-25T14:39:19.897Z,16.77
2018-07-25T14:41:48.520Z,18.80
2018-07-25T14:44:17.234Z,18.12
2018-07-25T14:46:45.869Z,17.25
2018-07-25T14:49:14.481Z,18.32
2018-07-25T14:51:43.093Z,19.55
2018-07-25T14:54:11.701Z,18.80
2018-07-25T14:56:40.361Z,18.70
2018-07-25T14:59:09.000Z,19.55
2018-07-25T15:01:37.677Z,19.57
2018-07-25T15:04:06.541Z,18.75
2018-07-25T15:06:35.261Z,19.10
2018-07-25T15:09:05.941Z,20.05
2018-07-25T15:11:34.693Z,18.42
2018-07-25T15:14:03.432Z,19.90
2018-07-25T15:16:32.137Z,18.42
2018-07-25T15:19:00.789Z,19.05
2018-07-25T15:21:29.500Z,18.77
2018-07-25T15:24:06.369Z,20.30
2018-07-25T15:26:36.580Z,19.23
2018-07-25T15:29:07.344Z,20.60
2018-07-25T15:31:35.961Z,20.60
2018-07-25T15:34:04.625Z,23.35
2018-07-25T15:36:45.137Z,19.25
2018-07-25T15:39:16.065Z,20.02
2018-07-25T15:41:45.813Z,25.75
2018-07-25T15:44:14.989Z,26.73
2018-07-25T15:46:44.102Z,25.88
2018-07-25T15:49:12.766Z,27.13
2018-07-25T15:51:41.498Z,28.98
2018-07-25T15:54:10.182Z,25.35
2018-07-25T15:56:39.840Z,25.97
2018-07-25T15:59:08.839Z,23.52
2018-07-25T16:01:37.536Z,21.42
2018-07-25T16:04:06.207Z,22.02
2018-07-25T16:06:34.953Z,20.32
2018-07-25T16:09:04.430Z,19.25
2018-07-25T16:11:33.102Z,18.77
2018-07-25T16:14:01.866Z,20.02
2018-07-25T16:16:30.624Z,20.40
2018-07-25T16:18:59.457Z,19.52
2018-07-25T16:21:28.070Z,21.40
2018-07-25T16:23:56.718Z,21.17
2018-07-25T16:26:25.345Z,18.90
2018-07-25T16:28:54.006Z,19.45
2018-07-25T16:31:22.663Z,19.12
2018-07-25T16:33:51.364Z,19.20
2018-07-25T16:36:20.003Z,19.80
2018-07-25T16:38:48.695Z,19.67
2018-07-25T16:41:17.332Z,23.50
2018-07-25T16:43:45.997Z,21.37
2018-07-25T16:46:14.639Z,26.40
2018-07-25T16:48:43.281Z,26.73
2018-07-25T16:51:11.918Z,28.30
2018-07-25T16:53:40.569Z,28.23
2018-07-25T16:56:09.453Z,26.33
2018-07-25T16:58:38.113Z,24.18
2018-07-25T17:01:06.802Z,21.27
2018-07-25T17:03:35.428Z,22.67
2018-07-25T17:06:04.156Z,22.40
2018-07-25T17:08:32.889Z,24.18
2018-07-25T17:11:01.610Z,21.90
2018-07-25T17:13:30.280Z,23.00
2018-07-25T17:15:59.008Z,22.65
2018-07-25T17:18:27.629Z,22.10
2018-07-25T17:20:56.285Z,27.65
2018-07-25T17:23:24.970Z,27.10
2018-07-25T17:25:53.573Z,25.55
2018-07-25T17:28:22.251Z,23.12
2018-07-25T17:30:50.900Z,26.85
2018-07-25T17:33:19.587Z,23.85
2018-07-25T17:35:48.396Z,22.60
2018-07-25T17:38:17.157Z,23.47
2018-07-25T17:40:45.875Z,20.75
2018-07-25T17:43:14.494Z,23.75
2018-07-25T17:45:43.157Z,21.37
2018-07-25T17:48:11.865Z,21.37
2018-07-25T17:50:40.415Z,21.40
2018-07-25T17:53:09.075Z,19.30
2018-07-25T17:55:37.716Z,19.07
2018-07-25T17:58:06.393Z,19.70
2018-07-25T18:00:35.149Z,18.12
2018-07-25T18:03:03.886Z,17.23
2018-07-25T18:05:32.593Z,19.10
2018-07-25T18:08:01.330Z,20.40
2018-07-25T18:10:30.071Z,21.25
2018-07-25T18:13:04.043Z,23.12
2018-07-25T18:15:32.825Z,21.25
2018-07-25T18:18:01.560Z,22.02
2018-07-25T18:20:30.281Z,21.12
2018-07-25T18:22:59.040Z,20.35
2018-07-25T18:25:27.584Z,20.12
2018-07-25T18:27:56.292Z,19.25
2018-07-25T18:30:24.939Z,18.35
2018-07-25T18:32:53.566Z,19.07
2018-07-25T18:35:22.225Z,17.92
2018-07-25T18:37:50.863Z,18.02
2018-07-25T18:40:19.636Z,16.80
2018-07-25T18:42:48.301Z,17.30
2018-07-25T18:45:17.049Z,17.62
2018-07-25T18:47:45.649Z,17.87
2018-07-25T18:50:14.341Z,18.70
2018-07-25T18:52:42.985Z,16.75
2018-07-25T18:55:11.581Z,17.35
2018-07-25T18:57:40.145Z,16.65
2018-07-25T19:00:08.806Z,18.57
2018-07-25T19:02:37.441Z,17.57
2018-07-25T19:05:06.102Z,17.45
2018-07-25T19:07:34.846Z,16.20
2018-07-25T19:10:03.551Z,16.90
2018-07-25T19:12:32.179Z,16.57
2018-07-25T19:15:06.191Z,16.80
2018-07-25T19:17:34.821Z,16.45
2018-07-25T19:20:03.537Z,15.70
2018-07-25T19:22:32.199Z,16.27
2018-07-25T19:25:00.941Z,15.32
2018-07-25T19:27:29.657Z,16.42
2018-07-25T19:29:58.251Z,16.20
2018-07-25T19:32:26.864Z,16.42
2018-07-25T19:34:55.475Z,17.07
2018-07-25T19:37:24.045Z,16.07
2018-07-25T19:39:52.615Z,16.40
2018-07-25T19:42:21.229Z,16.40
2018-07-25T19:44:49.898Z,16.23
2018-07-25T19:47:18.534Z,17.45
2018-07-25T19:49:47.129Z,15.43
2018-07-25T19:52:15.733Z,16.27
2018-07-25T19:54:43.956Z,15.75
2018-07-25T19:57:12.509Z,15.28
2018-07-25T19:59:41.105Z,14.80
2018-07-25T20:02:09.669Z,16.57
2018-07-25T20:04:38.279Z,15.15
2018-07-25T20:07:06.961Z,15.35
2018-07-25T20:09:35.558Z,15.28
2018-07-25T20:12:04.248Z,14.65
2018-07-25T20:14:38.273Z,14.75
2018-07-25T20:17:06.899Z,15.63
2018-07-25T20:19:35.646Z,15.65
2018-07-25T20:22:04.341Z,15.15
2018-07-25T20:24:33.122Z,14.13
2018-07-25T20:27:01.967Z,14.55
2018-07-25T20:29:30.753Z,14.95
2018-07-25T20:31:59.389Z,14.90
2018-07-25T20:34:27.977Z,15.10
2018-07-25T20:36:56.583Z,15.00
2018-07-25T20:39:25.184Z,14.70
2018-07-25T20:41:53.803Z,14.55
2018-07-25T20:44:22.681Z,14.83
2018-07-25T20:46:51.310Z,14.50
2018-07-25T20:49:19.900Z,14.93
2018-07-25T20:51:48.626Z,14.63
2018-07-25T20:54:17.293Z,14.35
2018-07-25T20:56:45.897Z,13.83
2018-07-25T20:59:14.510Z,14.50
2018-07-25T21:01:43.141Z,14.83
2018-07-25T21:04:11.777Z,14.45
2018-07-25T21:06:40.364Z,14.53
2018-07-25T21:09:09.226Z,15.23
2018-07-25T21:11:37.819Z,14.07
2018-07-25T21:14:06.465Z,15.20
2018-07-25T21:16:35.070Z,14.38
2018-07-25T21:19:03.742Z,15.32
2018-07-25T21:21:32.410Z,15.95
2018-07-25T21:24:01.130Z,15.13
2018-07-25T21:26:29.808Z,15.60
2018-07-25T21:28:58.498Z,16.62
2018-07-25T21:31:27.113Z,15.20
2018-07-25T21:33:55.710Z,17.40
2018-07-25T21:36:24.322Z,15.10
2018-07-25T21:38:52.926Z,16.05
2018-07-25T21:41:21.533Z,15.90
2018-07-25T21:43:50.114Z,17.55
2018-07-25T21:46:18.782Z,17.83
2018-07-25T21:48:47.423Z,17.50
2018-07-25T21:51:16.094Z,17.23
2018-07-25T21:53:44.784Z,17.63
2018-07-25T21:56:13.508Z,17.35
2018-07-25T21:58:42.073Z,17.42
2018-07-25T22:01:13.500Z,17.73
2018-07-25T22:03:42.106Z,19.25
2018-07-25T22:06:10.724Z,19.17
2018-07-25T22:08:39.313Z,19.33
2018-07-25T22:11:07.901Z,18.23
2018-07-25T22:13:36.613Z,20.47
2018-07-25T22:16:06.169Z,20.20
2018-07-25T22:18:34.862Z,21.02
2018-07-25T22:21:03.570Z,20.72
2018-07-25T22:23:33.346Z,21.13
2018-07-25T22:26:02.050Z,21.57
2018-07-25T22:28:30.765Z,19.67
2018-07-25T22:30:59.393Z,23.40
2018-07-25T22:33:28.042Z,22.87
2018-07-25T22:35:56.620Z,23.53
2018-07-25T22:38:25.224Z,22.90
2018-07-25T22:40:53.818Z,23.07
2018-07-25T22:43:22.415Z,25.03
2018-07-25T22:45:51.038Z,20.57
2018-07-25T22:48:19.660Z,24.43
2018-07-25T22:50:48.308Z,23.70
2018-07-25T22:53:16.920Z,21.27
2018-07-25T22:55:45.530Z,21.00
2018-07-25T22:58:14.121Z,24.83
2018-07-25T23:00:42.744Z,23.03
2018-07-25T23:03:11.329Z,24.00
2018-07-25T23:05:39.950Z,22.40
2018-07-25T23:08:08.901Z,21.10
2018-07-25T23:10:37.504Z,23.63
2018-07-25T23:13:06.137Z,23.07
2018-07-25T23:15:34.868Z,21.93
2018-07-25T23:18:03.631Z,20.97
2018-07-25T23:20:32.332Z,20.33
2018-07-25T23:23:01.722Z,20.53
2018-07-25T23:25:30.698Z,21.03
2018-07-25T23:28:00.169Z,21.17
2018-07-25T23:30:29.797Z,22.67
2018-07-25T23:32:58.422Z,20.07
2018-07-25T23:35:27.015Z,20.93
2018-07-25T23:37:55.252Z,21.40
2018-07-25T23:40:23.825Z,21.03
2018-07-25T23:42:53.448Z,20.37
2018-07-25T23:45:22.054Z,23.50
2018-07-25T23:47:50.677Z,21.67
2018-07-25T23:50:19.304Z,19.77
2018-07-25T23:52:47.952Z,21.73
2018-07-25T23:55:16.562Z,22.90
2018-07-25T23:57:45.272Z,20.27
